Time;durP1;ratioP1;P1;durP2;ratioP2;P2;SDS_P1;SDS_P2;PMS_P1;PMS_P2;Temp;Humidity;BMP_temperature;BMP_pressure;BME280_temperature;BME280_humidity;BME280_pressure;Samples;Min_cycle;Max_cycle;Signal;HPM_P1;HPM_P2
2023/06/02 00:02:05;;;;;;;13.00;3.00;;;;;;;12.92;60.12;102098.88;7393473;19;20033;-56
2023/06/02 00:04:32;;;;;;;13.27;2.95;;;;;;;12.88;60.53;102097.38;7393194;19;20029;-57
2023/06/02 00:07:03;;;;;;;13.85;2.97;;;;;;;12.87;60.71;102095.66;7393288;19;20022;-61
2023/06/02 00:09:37;;;;;;;11.88;3.15;;;;;;;12.89;60.60;102099.06;7393009;19;20024;-55
2023/06/02 00:12:05;;;;;;;13.82;3.25;;;;;;;12.91;60.61;102091.03;7393742;19;20026;-55
2023/06/02 00:14:33;;;;;;;13.18;3.17;;;;;;;12.88;61.06;102096.53;7394709;19;20022;-55
2023/06/02 00:17:00;;;;;;;11.85;3.17;;;;;;;12.93;60.78;102097.09;7393563;19;20048;-54
2023/06/02 00:19:31;;;;;;;18.90;3.05;;;;;;;12.90;60.96;102090.16;7393291;19;20014;-56
2023/06/02 00:22:01;;;;;;;15.35;2.97;;;;;;;12.93;61.06;102086.44;7393346;19;20034;-56
2023/06/02 00:24:29;;;;;;;17.08;3.28;;;;;;;12.85;61.43;102088.72;7394508;19;20086;-56
2023/06/02 00:26:56;;;;;;;15.77;3.15;;;;;;;12.95;61.36;102087.22;7392821;19;20023;-56
2023/06/02 00:29:24;;;;;;;17.85;3.33;;;;;;;12.91;61.26;102081.22;7392157;19;20379;-54
2023/06/02 00:31:51;;;;;;;15.68;2.95;;;;;;;12.92;61.31;102077.63;7391967;19;20125;-58
2023/06/02 00:34:18;;;;;;;13.02;3.20;;;;;;;12.90;61.39;102090.16;7393378;19;20015;-59
2023/06/02 00:36:45;;;;;;;14.82;3.22;;;;;;;12.84;61.66;102079.91;7393076;19;20609;-58
2023/06/02 00:39:13;;;;;;;12.50;2.97;;;;;;;12.83;61.61;102085.31;7392614;19;20364;-59
2023/06/02 00:41:44;;;;;;;12.23;3.08;;;;;;;12.83;61.86;102090.66;7393242;19;20019;-58
2023/06/02 00:44:11;;;;;;;13.70;3.00;;;;;;;12.89;61.65;102085.78;7391658;19;20018;-57
2023/06/02 00:46:39;;;;;;;14.52;3.38;;;;;;;12.91;61.76;102085.69;7393300;19;20031;-54
2023/06/02 00:49:06;;;;;;;17.63;3.65;;;;;;;12.86;61.84;102083.34;7391343;19;20047;-50
2023/06/02 00:51:33;;;;;;;15.48;3.40;;;;;;;12.81;62.28;102080.09;7390624;19;20039;-51
2023/06/02 00:54:00;;;;;;;15.45;3.20;;;;;;;12.84;62.18;102084.38;7393160;19;20042;-53
2023/06/02 00:56:29;;;;;;;16.23;3.75;;;;;;;12.84;62.15;102073.75;7392906;19;20026;-52
2023/06/02 00:58:56;;;;;;;15.63;3.83;;;;;;;12.79;62.50;102076.69;7392139;19;20424;-55
2023/06/02 01:01:24;;;;;;;14.93;3.47;;;;;;;12.75;62.77;102079.63;7392344;19;20027;-57
2023/06/02 01:03:51;;;;;;;15.30;3.30;;;;;;;12.76;62.30;102076.88;7392139;19;20050;-56
2023/06/02 01:06:34;;;;;;;15.27;3.80;;;;;;;12.82;62.54;102075.63;7392534;19;20022;-56
2023/06/02 01:09:13;;;;;;;15.02;3.63;;;;;;;12.86;62.46;102069.19;7392096;19;20708;-57
2023/06/02 01:11:40;;;;;;;15.32;3.40;;;;;;;12.79;62.60;102075.84;7390404;19;20021;-57
2023/06/02 01:14:09;;;;;;;20.88;3.83;;;;;;;12.82;62.59;102081.81;7391600;19;20038;-58
2023/06/02 01:16:38;;;;;;;16.70;3.33;;;;;;;12.80;62.86;102067.75;7392425;19;20018;-59
2023/06/02 01:19:13;;;;;;;14.15;3.60;;;;;;;12.84;62.75;102074.59;7390416;19;20330;-59
2023/06/02 01:21:47;;;;;;;14.75;3.90;;;;;;;12.81;62.86;102072.13;7392978;19;20010;-52
2023/06/02 01:24:15;;;;;;;19.33;4.35;;;;;;;12.84;62.70;102069.28;7395351;19;20128;-61
2023/06/02 01:26:43;;;;;;;14.55;3.58;;;;;;;12.81;62.86;102069.44;7390717;19;20018;-58
2023/06/02 01:29:10;;;;;;;18.67;3.90;;;;;;;12.80;62.90;102066.91;7391763;19;20031;-58
2023/06/02 01:31:46;;;;;;;17.48;3.90;;;;;;;12.87;63.05;102069.09;7388224;19;20078;-59
2023/06/02 01:34:20;;;;;;;15.93;4.10;;;;;;;12.74;63.43;102056.63;7391400;19;20570;-59
2023/06/02 01:36:50;;;;;;;15.75;3.80;;;;;;;12.83;63.52;102056.09;7389574;19;20026;-58
2023/06/02 01:39:19;;;;;;;16.77;4.43;;;;;;;12.93;63.03;102057.19;7390860;19;20018;-59
2023/06/02 01:41:49;;;;;;;19.02;5.57;;;;;;;12.85;63.42;102049.69;7390410;19;20010;-59
2023/06/02 01:44:17;;;;;;;15.15;5.25;;;;;;;12.83;63.47;102040.97;7391186;19;20019;-59
2023/06/02 01:46:44;;;;;;;18.60;5.28;;;;;;;12.81;63.57;102050.84;7391331;19;20022;-59
2023/06/02 01:49:15;;;;;;;18.00;5.63;;;;;;;12.79;63.62;102059.88;7391204;19;20018;-60
2023/06/02 01:51:43;;;;;;;23.30;4.95;;;;;;;12.83;63.52;102056.09;7389819;19;20018;-60
2023/06/02 01:54:10;;;;;;;18.45;4.82;;;;;;;12.81;63.68;102063.28;7389333;19;20028;-59
2023/06/02 01:56:37;;;;;;;18.42;4.95;;;;;;;12.80;63.64;102061.59;7389357;19;20025;-59
2023/06/02 01:59:04;;;;;;;18.40;4.32;;;;;;;12.79;63.89;102060.72;7390716;19;20482;-59
2023/06/02 02:01:32;;;;;;;17.30;4.25;;;;;;;12.71;64.17;102067.47;7386281;19;20042;-59
2023/06/02 02:03:59;;;;;;;18.60;4.00;;;;;;;12.75;64.46;102066.34;7390145;19;20031;-59
2023/06/02 02:06:29;;;;;;;19.08;4.00;;;;;;;12.83;63.76;102066.72;7390838;19;20519;-59
2023/06/02 02:08:57;;;;;;;14.77;3.75;;;;;;;12.81;64.03;102072.13;7390576;19;20015;-59
2023/06/02 02:11:26;;;;;;;21.17;4.13;;;;;;;12.74;64.51;102067.28;7389810;19;20052;-59
2023/06/02 02:13:54;;;;;;;18.98;4.50;;;;;;;12.78;63.93;102071.44;7389063;19;20035;-59
2023/06/02 02:16:21;;;;;;;16.13;3.70;;;;;;;12.71;64.52;102076.31;7388279;19;20389;-59
2023/06/02 02:18:52;;;;;;;20.45;4.63;;;;;;;12.76;64.51;102071.56;7388266;19;20026;-59
2023/06/02 02:21:20;;;;;;;18.52;4.30;;;;;;;12.72;64.32;102069.19;7386216;19;20022;-59
2023/06/02 02:23:47;;;;;;;16.67;4.68;;;;;;;12.69;64.69;102079.03;7390468;19;20018;-59
2023/06/02 02:26:16;;;;;;;17.10;4.57;;;;;;;12.71;64.70;102070.16;7388396;19;20043;-60
2023/06/02 02:28:43;;;;;;;18.88;5.10;;;;;;;12.69;64.60;102071.06;7388391;19;20054;-59
2023/06/02 02:31:11;;;;;;;15.70;4.68;;;;;;;12.69;65.08;102065.75;7396898;19;20011;-59
2023/06/02 02:33:39;;;;;;;17.65;4.75;;;;;;;12.73;64.87;102065.56;7397769;19;20477;-59
2023/06/02 02:36:06;;;;;;;20.77;5.13;;;;;;;12.73;65.15;102061.09;7395925;19;20046;-59
2023/06/02 02:38:33;;;;;;;21.30;5.55;;;;;;;12.83;64.85;102066.72;7393853;19;20056;-58
2023/06/02 02:41:00;;;;;;;15.77;4.68;;;;;;;12.93;64.52;102070.50;7394610;19;20019;-58
2023/06/02 02:43:27;;;;;;;17.10;4.40;;;;;;;12.90;64.72;102071.56;7396119;19;20018;-58
2023/06/02 02:45:55;;;;;;;16.95;4.50;;;;;;;12.92;64.61;102074.09;7396822;19;20022;-59
2023/06/02 02:48:22;;;;;;;17.10;4.22;;;;;;;12.87;64.89;102076.22;7394781;19;20020;-58
2023/06/02 02:50:50;;;;;;;21.30;4.30;;;;;;;12.89;64.79;102074.28;7396466;19;20046;-60
2023/06/02 02:53:18;;;;;;;18.73;4.15;;;;;;;12.88;64.99;102072.59;7397174;19;20015;-60
2023/06/02 02:55:45;;;;;;;22.50;4.00;;;;;;;12.82;65.37;102065.88;7396722;19;20032;-59
2023/06/02 02:58:18;;;;;;;18.60;4.20;;;;;;;12.84;65.23;102069.28;7392828;19;20352;-59
2023/06/02 03:00:46;;;;;;;18.20;3.97;;;;;;;12.83;65.42;102072.88;7393206;19;20044;-59
2023/06/02 03:03:13;;;;;;;19.20;4.60;;;;;;;12.82;65.34;102065.88;7394782;19;20015;-59
2023/06/02 03:05:41;;;;;;;16.50;4.22;;;;;;;12.85;65.48;102064.81;7396449;19;20035;-59
2023/06/02 03:08:09;;;;;;;23.65;4.97;;;;;;;12.85;65.78;102064.81;7394762;19;20490;-59
2023/06/02 03:10:36;;;;;;;20.75;4.63;;;;;;;12.93;65.42;102066.06;7395662;19;20022;-59
2023/06/02 03:13:03;;;;;;;21.42;4.72;;;;;;;12.86;65.43;102071.84;7396150;19;20017;-59
2023/06/02 03:15:33;;;;;;;23.02;5.10;;;;;;;12.86;65.65;102066.53;7394333;19;20023;-59
2023/06/02 03:18:03;;;;;;;19.45;4.32;;;;;;;12.86;65.93;102071.84;7394437;19;20015;-60
2023/06/02 03:20:31;;;;;;;18.20;4.38;;;;;;;12.84;65.90;102071.94;7394547;19;20018;-60
2023/06/02 03:22:59;;;;;;;22.10;4.95;;;;;;;12.90;65.46;102068.91;7394409;19;20019;-61
2023/06/02 03:25:26;;;;;;;17.52;5.13;;;;;;;12.90;65.52;102076.88;7395072;19;20031;-61
2023/06/02 03:27:53;;;;;;;18.63;4.45;;;;;;;12.94;65.72;102082.84;7393991;19;20090;-61
2023/06/02 03:30:20;;;;;;;23.10;5.65;;;;;;;12.91;65.46;102093.69;7395669;19;20410;-60
2023/06/02 03:32:48;;;;;;;21.52;6.03;;;;;;;12.88;65.75;102086.75;7395240;19;20014;-61
2023/06/02 03:35:15;;;;;;;20.75;5.60;;;;;;;12.93;65.75;102090.00;7395570;19;20086;-60
2023/06/02 03:37:42;;;;;;;20.13;5.50;;;;;;;12.97;65.55;102087.09;7393737;19;20019;-62
2023/06/02 03:40:10;;;;;;;23.00;6.20;;;;;;;13.00;65.48;102089.59;7393157;19;20386;-61
2023/06/02 03:42:37;;;;;;;20.35;4.90;;;;;;;12.93;65.90;102087.31;7392846;19;20479;-61
2023/06/02 03:45:05;;;;;;;21.10;5.88;;;;;;;12.90;66.00;102094.63;7394677;19;20026;-62
2023/06/02 03:47:32;;;;;;;19.45;5.10;;;;;;;12.96;65.92;102090.72;7393487;19;20510;-62
2023/06/02 03:49:59;;;;;;;18.10;5.32;;;;;;;13.01;65.96;102089.50;7395076;19;20018;-60
2023/06/02 03:52:30;;;;;;;17.00;4.70;;;;;;;12.93;66.28;102090.00;7393829;19;20022;-60
2023/06/02 03:54:57;;;;;;;17.13;4.53;;;;;;;12.97;66.45;102081.78;7395464;19;20092;-61
2023/06/02 03:57:25;;;;;;;20.83;4.95;;;;;;;13.00;66.05;102097.56;7393198;19;20031;-59
2023/06/02 03:59:52;;;;;;;20.27;4.95;;;;;;;13.05;65.86;102092.81;7394261;19;20023;-57
2023/06/02 04:02:19;;;;;;;19.98;5.38;;;;;;;13.01;66.27;102092.16;7394094;19;20018;-58
2023/06/02 04:04:47;;;;;;;20.27;5.15;;;;;;;13.01;66.12;102100.16;7394223;19;20523;-58
2023/06/02 04:07:14;;;;;;;21.77;5.00;;;;;;;13.05;66.37;102092.81;7393465;19;20090;-58
2023/06/02 04:09:41;;;;;;;20.10;5.40;;;;;;;13.10;66.30;102098.72;7394689;19;20029;-59
2023/06/02 04:12:09;;;;;;;20.85;5.20;;;;;;;13.14;66.34;102094.91;7393242;19;20014;-60
2023/06/02 04:14:37;;;;;;;21.25;5.38;;;;;;;13.25;65.74;102091.59;7392682;19;20017;-58
2023/06/02 04:17:05;;;;;;;20.35;5.25;;;;;;;13.30;65.76;102094.81;7393923;19;20015;-59
2023/06/02 04:19:32;;;;;;;20.38;5.22;;;;;;;13.29;65.85;102090.44;7393907;19;20017;-59
2023/06/02 04:21:59;;;;;;;21.65;5.38;;;;;;;13.28;66.44;102091.38;7391310;19;20026;-58
2023/06/02 04:24:27;;;;;;;21.38;5.38;;;;;;;13.18;66.81;102089.28;7394081;19;20078;-58
2023/06/02 04:26:54;;;;;;;18.42;4.70;;;;;;;13.16;66.87;102092.97;7392770;19;20025;-59
2023/06/02 04:29:22;;;;;;;18.42;5.07;;;;;;;13.18;66.87;102104.41;7393860;19;20030;-59
2023/06/02 04:31:50;;;;;;;25.23;5.13;;;;;;;13.22;67.00;102105.06;7392719;19;20035;-59
2023/06/02 04:34:17;;;;;;;22.42;5.28;;;;;;;13.28;66.36;102108.22;7393128;19;20024;-58
2023/06/02 04:36:45;;;;;;;27.30;5.57;;;;;;;13.24;66.92;102112.03;7392464;19;20043;-58
2023/06/02 04:39:12;;;;;;;23.98;5.28;;;;;;;13.27;66.90;102106.50;7393673;19;20064;-57
2023/06/02 04:41:39;;;;;;;27.58;6.57;;;;;;;13.32;66.60;102111.53;7391127;19;20023;-57
2023/06/02 04:44:08;;;;;;;20.85;5.18;;;;;;;13.33;66.68;102111.44;7393021;19;20053;-59
2023/06/02 04:46:35;;;;;;;27.33;6.28;;;;;;;13.35;66.92;102111.31;7391826;19;20019;-57
2023/06/02 04:49:07;;;;;;;24.88;6.63;;;;;;;13.24;67.08;102108.50;7393204;19;20022;-57
2023/06/02 04:51:35;;;;;;;27.08;6.82;;;;;;;13.25;67.03;102123.53;7391965;19;20019;-57
2023/06/02 04:54:03;;;;;;;24.73;6.45;;;;;;;13.28;67.27;102125.97;7390484;19;20022;-57
2023/06/02 04:56:31;;;;;;;25.58;6.28;;;;;;;13.34;67.11;102123.78;7391557;19;20022;-57
2023/06/02 04:58:58;;;;;;;27.20;6.22;;;;;;;13.36;67.40;102124.56;7392086;19;20018;-58
2023/06/02 05:01:26;;;;;;;24.48;5.63;;;;;;;13.46;66.90;102121.28;7390904;19;20038;-57
2023/06/02 05:03:54;;;;;;;21.58;5.38;;;;;;;13.52;66.90;102120.91;7392311;19;20078;-58
2023/06/02 05:06:21;;;;;;;21.55;5.40;;;;;;;13.53;67.00;102125.28;7392539;19;20525;-59
2023/06/02 05:08:50;;;;;;;21.98;5.72;;;;;;;13.45;67.26;102125.75;7388955;19;20019;-59
2023/06/02 05:11:17;;;;;;;23.20;5.72;;;;;;;13.33;67.80;102124.75;7391636;19;20027;-59
2023/06/02 05:13:45;;;;;;;25.55;5.97;;;;;;;13.34;68.18;102122.94;7391637;19;20400;-58
2023/06/02 05:16:12;;;;;;;20.75;5.38;;;;;;;13.38;68.17;102125.28;7391954;19;20019;-57
2023/06/02 05:18:39;;;;;;;21.52;5.53;;;;;;;13.43;68.28;102134.78;7390137;19;20022;-58
2023/06/02 05:21:06;;;;;;;25.30;5.47;;;;;;;13.43;68.16;102124.16;7390986;19;20094;-57
2023/06/02 05:23:34;;;;;;;23.48;6.05;;;;;;;13.40;68.71;102135.84;7390333;19;20026;-57
2023/06/02 05:26:01;;;;;;;24.67;6.97;;;;;;;13.35;68.91;102133.47;7392000;19;20035;-57
2023/06/02 05:28:29;;;;;;;25.67;6.07;;;;;;;13.39;68.86;102129.69;7389518;19;20039;-57
2023/06/02 05:30:56;;;;;;;21.88;5.45;;;;;;;13.42;69.06;102139.25;7390686;19;20085;-57
2023/06/02 05:33:23;;;;;;;28.10;5.72;;;;;;;13.58;68.76;102133.81;7389262;19;20490;-58
2023/06/02 05:35:50;;;;;;;19.67;5.68;;;;;;;13.69;68.38;102133.13;7391168;19;20038;-58
2023/06/02 05:38:17;;;;;;;21.25;5.40;;;;;;;13.77;68.23;102134.31;7389689;19;20045;-61
2023/06/02 05:40:44;;;;;;;26.65;5.20;;;;;;;13.84;68.21;102129.47;7390085;19;20018;-62
2023/06/02 05:43:13;;;;;;;28.85;5.63;;;;;;;13.80;68.56;102134.13;7389618;19;20018;-62
2023/06/02 05:45:40;;;;;;;24.52;5.32;;;;;;;13.77;68.64;102134.31;7391456;19;20034;-61
2023/06/02 05:48:07;;;;;;;23.98;6.47;;;;;;;13.82;68.70;102134.06;7389210;19;20356;-61
2023/06/02 05:50:36;;;;;;;26.27;5.70;;;;;;;13.87;69.09;102134.59;7390777;19;20086;-61
2023/06/02 05:53:03;;;;;;;18.65;5.00;;;;;;;13.77;69.47;102134.31;7389147;19;20019;-61
2023/06/02 05:55:30;;;;;;;22.75;6.97;;;;;;;13.81;69.34;102140.31;7390766;19;20011;-61
2023/06/02 05:57:57;;;;;;;22.85;6.15;;;;;;;13.95;69.25;102144.75;7389917;19;20030;-61
2023/06/02 06:00:25;;;;;;;23.35;5.80;;;;;;;14.11;68.71;102142.78;7391207;19;20578;-61
2023/06/02 06:02:53;;;;;;;26.25;6.10;;;;;;;14.21;68.56;102148.34;7390233;19;20017;-62
2023/06/02 06:05:20;;;;;;;19.02;5.65;;;;;;;14.21;68.62;102143.03;7390375;19;20014;-58
2023/06/02 06:07:47;;;;;;;22.95;5.43;;;;;;;14.23;68.96;102138.44;7389426;19;20026;-58
2023/06/02 06:10:14;;;;;;;25.10;6.55;;;;;;;14.14;69.09;102140.75;7390769;19;20372;-58
2023/06/02 06:12:42;;;;;;;24.63;5.75;;;;;;;14.04;70.01;102144.13;7390439;19;20018;-58
2023/06/02 06:15:09;;;;;;;23.95;5.97;;;;;;;14.03;69.98;102150.41;7388773;19;20011;-58
2023/06/02 06:17:53;;;;;;;22.75;6.00;;;;;;;14.07;70.18;102154.59;7389807;19;20022;-63
2023/06/02 06:20:20;;;;;;;19.67;5.07;;;;;;;14.00;70.07;102146.13;7389962;19;20019;-62
2023/06/02 06:22:48;;;;;;;21.48;5.70;;;;;;;14.05;70.16;102143.19;7388618;19;20049;-56
2023/06/02 06:25:15;;;;;;;25.05;5.43;;;;;;;14.10;69.96;102149.06;7390341;19;20333;-57
2023/06/02 06:27:43;;;;;;;22.58;5.75;;;;;;;14.13;69.95;102141.72;7389093;19;20101;-58
2023/06/02 06:30:10;;;;;;;21.23;5.53;;;;;;;14.21;69.87;102145.69;7388762;19;20014;-58
2023/06/02 06:32:37;;;;;;;23.85;5.47;;;;;;;14.27;69.62;102148.81;7390282;19;20014;-58
2023/06/02 06:35:05;;;;;;;22.40;5.50;;;;;;;14.29;69.63;102144.22;7389541;19;20019;-58
2023/06/02 06:37:32;;;;;;;19.70;5.78;;;;;;;14.27;69.66;102146.16;7387814;19;20019;-58
2023/06/02 06:40:00;;;;;;;26.77;5.68;;;;;;;14.31;69.85;102150.31;7387977;19;20042;-58
2023/06/02 06:42:27;;;;;;;23.10;5.88;;;;;;;14.50;69.47;102154.41;7387839;19;20014;-59
2023/06/02 06:44:55;;;;;;;18.50;4.78;;;;;;;14.70;68.73;102153.06;7389277;19;20027;-59
2023/06/02 06:47:22;;;;;;;19.60;4.35;;;;;;;14.84;67.97;102155.63;7389456;19;20486;-60
2023/06/02 06:49:51;;;;;;;20.90;4.75;;;;;;;14.90;67.64;102170.34;7389480;19;20046;-61
2023/06/02 06:52:19;;;;;;;18.33;4.63;;;;;;;14.95;67.50;102162.88;7387375;19;20023;-59
2023/06/02 06:54:46;;;;;;;14.23;4.10;;;;;;;14.97;66.86;102163.66;7388774;19;20573;-56
2023/06/02 06:57:13;;;;;;;18.90;4.53;;;;;;;14.96;66.61;102167.28;7388667;19;20047;-58
2023/06/02 06:59:42;;;;;;;15.00;4.10;;;;;;;15.06;66.39;102165.66;7388675;19;20027;-55
2023/06/02 07:02:09;;;;;;;17.95;4.20;;;;;;;15.15;66.13;102164.16;7387210;19;20042;-55
2023/06/02 07:04:36;;;;;;;17.80;4.65;;;;;;;15.10;66.18;102168.00;7389552;19;20017;-55
2023/06/02 07:07:05;;;;;;;16.23;4.28;;;;;;;15.06;66.25;102169.16;7388586;19;20033;-55
2023/06/02 07:09:32;;;;;;;18.02;4.32;;;;;;;15.07;66.14;102170.91;7388650;19;20041;-56
2023/06/02 07:11:59;;;;;;;16.50;3.80;;;;;;;15.10;66.20;102170.66;7388371;19;20019;-54
2023/06/02 07:14:27;;;;;;;15.63;4.18;;;;;;;15.17;65.98;102173.75;7388603;19;20023;-55
2023/06/02 07:16:55;;;;;;;16.83;3.67;;;;;;;15.17;66.03;102175.59;7391791;19;20039;-53
2023/06/02 07:19:22;;;;;;;14.65;3.75;;;;;;;15.04;66.43;102168.44;7396195;19;20036;-49
2023/06/02 07:21:50;;;;;;;17.13;4.00;;;;;;;14.97;66.68;102175.16;7392348;19;20011;-51
2023/06/02 07:24:17;;;;;;;16.10;3.45;;;;;;;15.00;66.51;102174.97;7394606;19;20086;-54
2023/06/02 07:26:44;;;;;;;11.20;3.30;;;;;;;15.08;65.90;102174.41;7393603;19;20022;-53
2023/06/02 07:29:11;;;;;;;11.07;3.05;;;;;;;15.10;65.45;102176.00;7395246;19;20059;-49
2023/06/02 07:31:43;;;;;;;10.73;2.95;;;;;;;15.14;65.02;102175.78;7394453;19;20493;-54
2023/06/02 07:34:10;;;;;;;14.38;3.10;;;;;;;15.19;64.64;102184.34;7395622;19;20088;-54
2023/06/02 07:36:38;;;;;;;12.90;2.92;;;;;;;15.22;64.45;102179.63;7395116;19;20086;-58
2023/06/02 07:39:05;;;;;;;9.32;2.53;;;;;;;15.30;63.81;102176.41;7394792;19;20014;-58
2023/06/02 07:41:33;;;;;;;11.77;2.47;;;;;;;15.34;63.18;102181.44;7393379;19;20026;-57
2023/06/02 07:44:00;;;;;;;14.63;3.40;;;;;;;15.35;63.46;102185.81;7395474;19;20014;-57
2023/06/02 07:46:27;;;;;;;8.68;2.30;;;;;;;15.35;62.89;102184.97;7394543;19;20015;-58
2023/06/02 07:48:55;;;;;;;12.02;2.58;;;;;;;15.36;62.50;102182.16;7395297;19;20018;-57
2023/06/02 07:51:22;;;;;;;10.10;2.40;;;;;;;15.40;62.47;102174.78;7394526;19;20378;-54
2023/06/02 07:53:49;;;;;;;12.13;2.28;;;;;;;15.44;62.00;102178.09;7395171;19;20018;-59
2023/06/02 07:56:17;;;;;;;12.20;2.72;;;;;;;15.47;62.06;102175.22;7393312;19;20070;-58
2023/06/02 07:58:47;;;;;;;9.38;2.33;;;;;;;15.58;61.75;102178.81;7392853;19;20047;-58
2023/06/02 08:01:14;;;;;;;12.10;2.70;;;;;;;15.64;61.54;102176.66;7393418;19;20038;-58
2023/06/02 08:03:43;;;;;;;10.00;2.42;;;;;;;15.69;60.80;102178.09;7394757;19;20511;-58
2023/06/02 08:06:11;;;;;;;10.30;2.10;;;;;;;15.73;60.13;102171.56;7394693;19;20082;-60
2023/06/02 08:08:38;;;;;;;13.35;2.85;;;;;;;15.73;60.26;102179.56;7391823;19;20474;-60
2023/06/02 08:11:05;;;;;;;12.43;2.75;;;;;;;15.77;60.36;102185.53;7393497;19;20034;-59
2023/06/02 08:13:32;;;;;;;10.82;4.00;;;;;;;15.87;59.58;102185.72;7394487;19;20400;-59
2023/06/02 08:16:00;;;;;;;9.55;2.85;;;;;;;15.91;58.29;102184.53;7394273;19;20014;-60
2023/06/02 08:18:30;;;;;;;8.43;2.10;;;;;;;15.87;58.05;102175.03;7392489;19;20054;-60
2023/06/02 08:20:57;;;;;;;8.85;2.45;;;;;;;15.90;57.52;102177.47;7392322;19;20011;-57
2023/06/02 08:23:25;;;;;;;12.75;2.33;;;;;;;15.91;57.05;102181.84;7389965;19;20498;-58
2023/06/02 08:25:54;;;;;;;9.85;2.10;;;;;;;16.01;57.03;102180.22;7394295;19;20482;-57
2023/06/02 08:28:25;;;;;;;9.25;2.00;;;;;;;16.12;56.65;102182.09;7390080;19;20086;-57
2023/06/02 08:30:52;;;;;;;7.78;2.08;;;;;;;16.17;55.89;102182.59;7393050;19;20483;-57
2023/06/02 08:33:21;;;;;;;6.78;1.60;;;;;;;16.38;55.69;102180.16;7394047;19;20094;-57
2023/06/02 08:35:50;;;;;;;10.02;1.90;;;;;;;16.44;55.59;102183.19;7393903;19;20022;-58
2023/06/02 08:38:18;;;;;;;8.13;2.13;;;;;;;16.63;54.98;102166.59;7391635;19;20014;-58
2023/06/02 08:40:47;;;;;;;7.38;1.80;;;;;;;16.74;55.05;102171.16;7392628;19;20097;-58
2023/06/02 08:43:15;;;;;;;8.43;1.92;;;;;;;16.83;55.13;102180.28;7391604;19;20039;-58
2023/06/02 08:45:44;;;;;;;7.05;2.00;;;;;;;16.72;55.63;102181.13;7393364;19;20039;-57
2023/06/02 08:48:17;;;;;;;7.78;2.10;;;;;;;16.84;56.11;102179.34;7391216;19;20554;-59
2023/06/02 08:50:52;;;;;;;7.63;2.17;;;;;;;17.09;55.40;102180.94;7392666;19;20022;-57
2023/06/02 08:53:23;;;;;;;7.00;2.08;;;;;;;17.26;54.52;102178.66;7391258;19;20019;-58
2023/06/02 08:55:51;;;;;;;9.13;2.17;;;;;;;17.21;53.74;102180.84;7392886;19;20018;-58
2023/06/02 08:58:18;;;;;;;11.20;2.30;;;;;;;17.02;54.61;102175.25;7390597;19;20074;-58
2023/06/02 09:00:45;;;;;;;8.88;2.25;;;;;;;16.78;55.26;102176.16;7392542;19;20139;-57
2023/06/02 09:03:13;;;;;;;7.85;2.20;;;;;;;16.77;54.06;102177.13;7390915;19;20044;-58
2023/06/02 09:06:16;;;;;;;10.55;2.13;;;;;;;16.72;54.64;102175.75;7390977;19;20514;-58
2023/06/02 09:08:57;;;;;;;6.10;2.10;;;;;;;16.77;54.71;102177.13;7387554;19;20006;-59
2023/06/02 09:11:32;;;;;;;8.48;2.30;;;;;;;16.79;54.78;102187.72;7391249;19;20566;-58
2023/06/02 09:13:59;;;;;;;5.43;2.20;;;;;;;16.83;54.71;102183.84;7392327;19;20018;-58
2023/06/02 09:16:38;;;;;;;7.25;2.17;;;;;;;16.86;55.33;102182.72;7392449;19;20482;-59
2023/06/02 09:19:06;;;;;;;7.60;2.20;;;;;;;17.01;54.69;102193.09;7394775;19;20030;-58
2023/06/02 09:21:33;;;;;;;10.30;2.63;;;;;;;17.18;54.66;102189.13;7394503;19;20042;-59
2023/06/02 09:24:02;;;;;;;7.30;2.10;;;;;;;17.40;54.24;102188.28;7394310;19;20022;-58
2023/06/02 09:26:33;;;;;;;7.20;2.15;;;;;;;17.52;54.30;102191.78;7395286;19;20035;-58
2023/06/02 09:29:13;;;;;;;10.88;2.92;;;;;;;17.71;53.70;102183.97;7395271;19;20018;-59
2023/06/02 09:31:52;;;;;;;8.32;2.40;;;;;;;17.81;53.51;102196.66;7391182;19;20047;-59
2023/06/02 09:34:32;;;;;;;8.23;2.17;;;;;;;17.72;53.18;102199.06;7395219;19;20011;-58
2023/06/02 09:37:13;;;;;;;8.75;2.42;;;;;;;17.65;53.34;102200.53;7389725;19;20027;-58
2023/06/02 09:39:43;;;;;;;8.82;2.40;;;;;;;17.45;55.11;102204.81;7389588;19;20371;-58
2023/06/02 09:42:12;;;;;;;7.43;2.40;;;;;;;17.32;55.85;102209.44;7390266;19;20028;-58
2023/06/02 09:44:40;;;;;;;7.53;2.35;;;;;;;17.27;56.83;102200.91;7390336;19;20049;-59
2023/06/02 09:47:22;;;;;;;9.57;2.83;;;;;;;17.44;56.97;102215.66;7388516;19;20023;-58
2023/06/02 09:49:50;;;;;;;8.25;2.95;;;;;;;17.41;56.96;102215.91;7389014;19;20018;-58
2023/06/02 09:52:18;;;;;;;10.20;3.28;;;;;;;17.29;57.41;102213.22;7388871;19;20026;-57
2023/06/02 09:54:47;;;;;;;9.57;2.60;;;;;;;17.26;57.57;102218.81;7390488;19;20054;-58
2023/06/02 09:57:16;;;;;;;11.27;2.80;;;;;;;17.29;56.67;102220.41;7389456;19;20046;-58
2023/06/02 09:59:44;;;;;;;8.68;2.97;;;;;;;17.24;57.18;102217.22;7390839;19;20018;-56
2023/06/02 10:02:13;;;;;;;9.13;3.33;;;;;;;17.32;57.34;102220.13;7389005;19;20484;-58
2023/06/02 10:04:40;;;;;;;8.40;3.00;;;;;;;17.40;57.47;102219.53;7390916;19;20026;-58
2023/06/02 10:07:25;;;;;;;7.38;3.08;;;;;;;17.60;57.19;102216.13;7389058;19;20014;-58
2023/06/02 10:10:13;;;;;;;11.60;3.58;;;;;;;17.77;57.00;102217.47;7390722;19;20074;-56
2023/06/02 10:13:15;;;;;;;9.80;3.22;;;;;;;17.74;57.20;102218.56;7389930;19;20047;-57
2023/06/02 10:16:07;;;;;;;13.00;3.08;;;;;;;17.53;58.07;102209.56;7389164;19;20014;-58
2023/06/02 10:19:09;;;;;;;10.45;3.42;;;;;;;17.50;57.84;102204.44;7388201;19;20039;-58
2023/06/02 10:21:46;;;;;;;9.63;3.10;;;;;;;17.67;57.21;102213.84;7389804;19;20022;-58
2023/06/02 10:24:24;;;;;;;8.80;3.00;;;;;;;17.81;56.31;102216.25;7390637;19;20029;-58
2023/06/02 10:27:02;;;;;;;12.00;3.47;;;;;;;17.85;56.07;102217.72;7389583;19;20022;-58
2023/06/02 10:29:33;;;;;;;7.25;3.05;;;;;;;17.82;56.32;102209.94;7389924;19;20094;-58
2023/06/02 10:32:19;;;;;;;11.75;3.25;;;;;;;17.97;56.08;102215.84;7389584;19;20011;-58
2023/06/02 10:34:51;;;;;;;9.65;3.10;;;;;;;18.03;55.69;102215.38;7389958;19;20482;-58
2023/06/02 10:37:19;;;;;;;9.68;3.95;;;;;;;18.16;55.72;102216.06;7389089;19;20366;-58
2023/06/02 10:39:51;;;;;;;8.68;3.05;;;;;;;18.32;55.58;102223.69;7389436;19;20114;-58
2023/06/02 10:42:20;;;;;;;9.52;3.33;;;;;;;18.41;55.29;102214.88;7388853;19;20375;-58
2023/06/02 10:44:47;;;;;;;10.13;3.70;;;;;;;18.64;53.94;102221.00;7389496;19;20064;-58
2023/06/02 10:47:17;;;;;;;11.88;3.60;;;;;;;18.83;53.23;102214.94;7387244;19;20022;-58
2023/06/02 10:50:02;;;;;;;7.22;3.00;;;;;;;18.92;53.38;102219.50;7389289;19;20023;-59
2023/06/02 10:52:34;;;;;;;9.18;3.38;;;;;;;18.89;53.33;102221.63;7394307;19;20082;-58
2023/06/02 10:55:07;;;;;;;8.15;3.40;;;;;;;18.87;53.25;102220.91;7396169;19;20035;-58
2023/06/02 10:58:04;;;;;;;9.32;3.42;;;;;;;18.92;53.36;102208.78;7395001;19;20025;-58
2023/06/02 11:00:35;;;;;;;8.85;3.13;;;;;;;18.92;53.02;102213.28;7395798;19;20283;-58
2023/06/02 11:03:15;;;;;;;8.98;3.30;;;;;;;19.03;52.93;102220.44;7395304;19;20143;-58
2023/06/02 11:05:45;;;;;;;9.52;3.50;;;;;;;19.01;52.89;102217.88;7395853;19;20018;-58
2023/06/02 11:08:15;;;;;;;10.40;3.50;;;;;;;19.05;53.33;102218.47;7392173;19;20017;-59
2023/06/02 11:10:50;;;;;;;10.55;3.47;;;;;;;18.99;52.65;102219.84;7394693;19;20074;-58
2023/06/02 11:13:21;;;;;;;10.07;3.50;;;;;;;18.89;53.03;102225.16;7396465;19;20022;-58
2023/06/02 11:15:51;;;;;;;10.85;3.67;;;;;;;18.96;53.17;102231.72;7394185;19;20121;-58
2023/06/02 11:18:22;;;;;;;12.60;3.40;;;;;;;18.88;53.88;102228.81;7393207;19;20015;-59
2023/06/02 11:20:51;;;;;;;10.00;3.70;;;;;;;18.87;53.83;102234.31;7395177;19;20039;-58
2023/06/02 11:23:18;;;;;;;9.68;3.10;;;;;;;18.90;53.73;102231.38;7394850;19;20011;-57
2023/06/02 11:26:06;;;;;;;8.40;3.25;;;;;;;19.15;53.13;102222.91;7395355;19;20015;-57
2023/06/02 11:28:33;;;;;;;11.35;3.40;;;;;;;19.30;52.89;102223.41;7392820;19;20029;-57
2023/06/02 11:31:09;;;;;;;10.02;3.53;;;;;;;19.37;52.54;102223.72;7394627;19;20043;-59